createdAt,value
2023-06-17T00:01:30.230Z,95336.96
2023-06-17T00:03:58.585Z,95332.27
2023-06-17T00:06:27.118Z,95331.47
2023-06-17T00:08:55.780Z,95331.89
2023-06-17T00:11:23.939Z,95333.14
2023-06-17T00:13:53.453Z,95335.79
2023-06-17T00:16:22.209Z,95333.23
2023-06-17T00:18:53.072Z,95327.55
2023-06-17T00:21:21.245Z,95327.33
2023-06-17T00:23:49.305Z,95326.23
2023-06-17T00:26:17.323Z,95319.39
2023-06-17T00:28:45.390Z,95316.25
2023-06-17T00:31:14.050Z,95316.58
2023-06-17T00:33:42.003Z,95313.50
2023-06-17T00:36:10.097Z,95308.05
2023-06-17T00:38:38.136Z,95309.60
2023-06-17T00:41:06.200Z,95308.35
2023-06-17T00:43:34.342Z,95308.48
2023-06-17T00:46:02.835Z,95302.96
2023-06-17T00:48:31.075Z,95304.91
2023-06-17T00:51:03.594Z,95305.44
2023-06-17T00:53:32.545Z,95303.17
2023-06-17T00:56:01.349Z,95302.95
2023-06-17T00:58:29.626Z,95298.17
2023-06-17T01:00:57.777Z,95299.27
2023-06-17T01:03:26.058Z,95298.73
2023-06-17T01:05:57.416Z,95296.66
2023-06-17T01:08:35.110Z,95295.69
2023-06-17T01:11:11.880Z,95295.48
2023-06-17T01:13:43.356Z,95298.95
2023-06-17T01:16:13.051Z,95300.64
2023-06-17T01:18:41.909Z,95300.04
2023-06-17T01:21:10.069Z,95297.60
2023-06-17T01:23:39.124Z,95297.50
2023-06-17T01:26:08.522Z,95297.49
2023-06-17T01:28:39.406Z,95295.05
2023-06-17T01:31:09.352Z,95295.65
2023-06-17T01:33:39.186Z,95292.79
2023-06-17T01:36:26.140Z,95291.11
2023-06-17T01:39:00.236Z,95290.18
2023-06-17T01:41:37.535Z,95287.79
2023-06-17T01:44:09.067Z,95289.83
2023-06-17T01:46:38.530Z,95286.55
2023-06-17T01:49:06.629Z,95284.90
2023-06-17T01:51:34.818Z,95284.44
2023-06-17T01:54:03.254Z,95282.50
2023-06-17T01:56:31.748Z,95285.52
2023-06-17T01:58:59.870Z,95285.45
2023-06-17T02:01:28.336Z,95285.62
2023-06-17T02:03:56.658Z,95287.56
2023-06-17T02:06:25.197Z,95293.27
2023-06-17T02:08:54.432Z,95294.54
2023-06-17T02:11:22.679Z,95298.13
2023-06-17T02:13:50.947Z,95300.34
2023-06-17T02:16:19.367Z,95298.72
2023-06-17T02:18:49.584Z,95299.08
2023-06-17T02:21:17.663Z,95304.16
2023-06-17T02:23:50.329Z,95307.09
2023-06-17T02:26:18.576Z,95305.58
2023-06-17T02:28:46.636Z,95304.96
2023-06-17T02:31:15.451Z,95303.06
2023-06-17T02:33:45.899Z,95303.42
2023-06-17T02:36:15.679Z,95301.15
2023-06-17T02:38:43.718Z,95300.79
2023-06-17T02:41:12.109Z,95302.19
2023-06-17T02:43:40.413Z,95301.86
2023-06-17T02:46:09.312Z,95300.88
2023-06-17T02:48:37.463Z,95298.73
2023-06-17T02:51:05.764Z,95304.05
2023-06-17T02:53:33.679Z,95306.36
2023-06-17T02:56:02.102Z,95304.64
2023-06-17T02:58:31.787Z,95305.46
2023-06-17T03:01:00.319Z,95305.07
2023-06-17T03:03:35.903Z,95309.93
2023-06-17T03:06:08.466Z,95312.58
2023-06-17T03:08:41.174Z,95313.30
2023-06-17T03:11:10.331Z,95315.90
2023-06-17T03:13:39.221Z,95318.42
2023-06-17T03:16:11.006Z,95320.95
2023-06-17T03:18:39.137Z,95321.88
2023-06-17T03:21:07.783Z,95323.09
2023-06-17T03:23:36.165Z,95324.95
2023-06-17T03:26:04.099Z,95325.69
2023-06-17T03:28:32.197Z,95321.48
2023-06-17T03:31:00.911Z,95321.27
2023-06-17T03:33:30.050Z,95325.33
2023-06-17T03:35:58.220Z,95330.98
2023-06-17T03:38:26.189Z,95329.94
2023-06-17T03:40:54.212Z,95327.86
2023-06-17T03:43:22.221Z,95330.69
2023-06-17T03:45:51.417Z,95335.12
2023-06-17T03:48:19.622Z,95335.42
2023-06-17T03:50:49.134Z,95332.89
2023-06-17T03:53:17.069Z,95331.84
2023-06-17T03:55:45.552Z,95332.34
2023-06-17T03:58:16.546Z,95329.50
2023-06-17T04:00:45.247Z,95330.15
2023-06-17T04:03:13.455Z,95330.94
2023-06-17T04:05:43.290Z,95328.25
2023-06-17T04:08:11.846Z,95329.42
2023-06-17T04:10:41.009Z,95326.02
2023-06-17T04:13:09.225Z,95325.73
2023-06-17T04:15:37.307Z,95324.22
2023-06-17T04:18:05.994Z,95324.52
2023-06-17T04:20:36.187Z,95326.29
2023-06-17T04:23:04.470Z,95330.48
2023-06-17T04:25:33.653Z,95329.08
2023-06-17T04:28:02.717Z,95326.74
2023-06-17T04:30:35.018Z,95325.52
2023-06-17T04:33:03.496Z,95325.76
2023-06-17T04:35:31.943Z,95320.84
2023-06-17T04:38:04.061Z,95323.31
2023-06-17T04:40:33.509Z,95326.70
2023-06-17T04:43:02.641Z,95325.98
2023-06-17T04:45:32.318Z,95325.23
2023-06-17T04:48:07.070Z,95320.94
2023-06-17T04:50:36.685Z,95323.86
2023-06-17T04:53:05.518Z,95324.13
2023-06-17T04:55:37.271Z,95328.95
2023-06-17T04:58:06.944Z,95331.87
2023-06-17T05:00:40.623Z,95335.63
2023-06-17T05:03:09.824Z,95340.31
2023-06-17T05:05:38.536Z,95341.73
2023-06-17T05:08:06.674Z,95343.11
2023-06-17T05:10:35.366Z,95346.33
2023-06-17T05:13:04.439Z,95350.94
2023-06-17T05:15:33.762Z,95349.94
2023-06-17T05:18:02.027Z,95352.64
2023-06-17T05:20:30.317Z,95352.00
2023-06-17T05:22:59.128Z,95353.06
2023-06-17T05:25:27.348Z,95358.33
2023-06-17T05:27:55.537Z,95359.70
2023-06-17T05:30:26.874Z,95359.62
2023-06-17T05:32:58.765Z,95361.56
2023-06-17T05:35:28.705Z,95366.77
2023-06-17T05:37:58.179Z,95369.67
2023-06-17T05:40:26.364Z,95369.23
2023-06-17T05:42:55.031Z,95372.58
2023-06-17T05:45:24.090Z,95372.84
2023-06-17T05:47:53.934Z,95378.60
2023-06-17T05:50:24.355Z,95380.58
2023-06-17T05:52:55.638Z,95383.30
2023-06-17T05:55:24.955Z,95384.42
2023-06-17T05:57:53.841Z,95390.66
2023-06-17T06:00:23.600Z,95391.40
2023-06-17T06:02:53.798Z,95389.52
2023-06-17T06:05:22.116Z,95392.67
2023-06-17T06:07:50.781Z,95390.86
2023-06-17T06:10:19.692Z,95393.39
2023-06-17T06:12:51.878Z,95396.46
2023-06-17T06:15:20.140Z,95394.38
2023-06-17T06:17:49.027Z,95393.54
2023-06-17T06:20:17.922Z,95391.92
2023-06-17T06:22:46.074Z,95392.11
2023-06-17T06:25:14.361Z,95393.41
2023-06-17T06:27:43.872Z,95395.81
2023-06-17T06:30:13.887Z,95398.58
2023-06-17T06:32:46.120Z,95399.92
2023-06-17T06:35:17.996Z,95401.45
2023-06-17T06:37:49.744Z,95400.77
2023-06-17T06:40:22.947Z,95401.90
2023-06-17T06:42:53.952Z,95404.38
2023-06-17T06:45:30.189Z,95401.86
2023-06-17T06:48:02.048Z,95401.44
2023-06-17T06:50:34.815Z,95404.17
2023-06-17T06:53:06.845Z,95405.37
2023-06-17T06:55:38.136Z,95406.52
2023-06-17T06:58:09.780Z,95405.80
2023-06-17T07:00:41.372Z,95407.22
2023-06-17T07:03:13.006Z,95405.73
2023-06-17T07:05:44.296Z,95402.95
2023-06-17T07:08:16.116Z,95403.48
2023-06-17T07:10:47.328Z,95404.05
2023-06-17T07:13:19.998Z,95402.84
2023-06-17T07:15:52.821Z,95404.15
2023-06-17T07:18:24.845Z,95405.11
2023-06-17T07:20:56.123Z,95404.02
2023-06-17T07:23:27.792Z,95400.69
2023-06-17T07:25:59.804Z,95399.95
2023-06-17T07:28:34.034Z,95397.41
2023-06-17T07:31:06.243Z,95396.36
2023-06-17T07:41:49.623Z,95391.52
2023-06-17T07:44:18.628Z,95393.13
2023-06-17T07:46:46.643Z,95395.97
2023-06-17T07:49:14.669Z,95397.11
2023-06-17T07:51:42.728Z,95403.02
2023-06-17T07:54:10.738Z,95402.77
2023-06-17T07:56:38.811Z,95407.64
2023-06-17T07:59:07.867Z,95407.60
2023-06-17T08:01:36.569Z,95411.84
2023-06-17T08:04:04.898Z,95409.87
2023-06-17T08:06:33.139Z,95408.89
2023-06-17T08:09:01.056Z,95416.00
2023-06-17T08:11:29.636Z,95413.98
2023-06-17T08:13:57.604Z,95416.05
2023-06-17T08:16:25.793Z,95420.02
2023-06-17T08:18:54.238Z,95416.20
2023-06-17T08:21:22.248Z,95418.53
2023-06-17T08:23:53.132Z,95418.52
2023-06-17T08:26:21.108Z,95416.09
2023-06-17T08:28:49.198Z,95417.35
2023-06-17T08:31:17.964Z,95418.38
2023-06-17T08:33:45.954Z,95419.96
2023-06-17T08:36:13.998Z,95419.96
2023-06-17T08:38:42.010Z,95421.45
2023-06-17T08:41:10.077Z,95425.20
2023-06-17T08:43:39.126Z,95425.05
2023-06-17T08:46:07.482Z,95425.55
2023-06-17T08:48:37.480Z,95425.05
2023-06-17T08:51:06.189Z,95427.99
2023-06-17T08:53:36.286Z,95426.35
2023-06-17T08:56:04.595Z,95429.58
2023-06-17T08:58:32.572Z,95427.04
2023-06-17T09:01:00.893Z,95427.22
2023-06-17T09:03:28.999Z,95426.52
2023-06-17T09:05:56.934Z,95429.70
2023-06-17T09:08:25.949Z,95428.67
2023-06-17T09:10:53.885Z,95429.36
2023-06-17T09:13:21.900Z,95428.96
2023-06-17T09:15:49.889Z,95423.52
2023-06-17T09:18:18.262Z,95425.73
2023-06-17T09:20:53.347Z,95424.26
2023-06-17T09:23:21.511Z,95426.29
2023-06-17T09:25:49.606Z,95424.98
2023-06-17T09:28:17.834Z,95425.08
2023-06-17T09:30:54.404Z,95425.85
2023-06-17T09:33:23.614Z,95423.59
2023-06-17T09:36:02.786Z,95423.52
2023-06-17T09:38:34.681Z,95420.77
2023-06-17T09:41:04.362Z,95422.13
2023-06-17T09:43:32.554Z,95422.94
2023-06-17T09:46:04.239Z,95420.91
2023-06-17T09:48:38.520Z,95420.94
2023-06-17T09:51:10.685Z,95416.77
2023-06-17T09:53:40.102Z,95418.59
2023-06-17T09:56:12.272Z,95416.95
2023-06-17T09:58:44.371Z,95417.10
2023-06-17T10:01:14.839Z,95419.68
2023-06-17T10:03:43.147Z,95421.86
2023-06-17T10:06:12.693Z,95417.53
2023-06-17T10:08:43.495Z,95417.68
2023-06-17T10:11:16.299Z,95420.35
2023-06-17T10:13:47.397Z,95422.06
2023-06-17T10:16:18.369Z,95419.02
2023-06-17T10:18:52.607Z,95414.35
2023-06-17T10:21:25.200Z,95412.23
2023-06-17T10:23:55.397Z,95411.84
2023-06-17T10:26:23.655Z,95409.03
2023-06-17T10:28:54.468Z,95410.71
2023-06-17T10:31:29.442Z,95407.05
2023-06-17T10:34:01.020Z,95402.64
2023-06-17T10:36:29.406Z,95405.94
2023-06-17T10:39:00.033Z,95405.74
2023-06-17T10:41:43.386Z,95405.31
2023-06-17T10:44:29.380Z,95404.23
2023-06-17T10:46:58.075Z,95402.97
2023-06-17T10:49:26.549Z,95400.58
2023-06-17T10:52:00.902Z,95400.13
2023-06-17T10:54:31.683Z,95401.00
2023-06-17T10:57:05.448Z,95400.73
2023-06-17T10:59:34.066Z,95404.12
2023-06-17T11:02:04.857Z,95401.92
2023-06-17T11:04:37.989Z,95400.80
2023-06-17T11:07:06.507Z,95405.11
2023-06-17T11:09:36.413Z,95408.39
2023-06-17T11:12:05.510Z,95411.10
2023-06-17T11:14:34.371Z,95411.98
2023-06-17T11:17:02.655Z,95413.44
2023-06-17T11:19:30.764Z,95413.96
2023-06-17T11:22:04.342Z,95414.07
2023-06-17T11:24:33.563Z,95414.79
2023-06-17T11:27:03.009Z,95408.61
2023-06-17T11:29:31.846Z,95405.74
2023-06-17T11:32:01.484Z,95402.88
2023-06-17T11:34:33.498Z,95402.61
2023-06-17T11:37:07.862Z,95403.02
2023-06-17T11:39:39.233Z,95403.61
2023-06-17T11:42:08.722Z,95402.33
2023-06-17T11:44:37.686Z,95405.98
2023-06-17T11:47:07.672Z,95414.08
2023-06-17T11:49:36.720Z,95416.70
2023-06-17T11:52:10.684Z,95415.68
2023-06-17T11:54:51.754Z,95417.39
2023-06-17T11:57:22.398Z,95418.66
2023-06-17T11:59:52.118Z,95418.59
2023-06-17T12:02:20.744Z,95416.89
2023-06-17T12:04:49.160Z,95418.27
2023-06-17T12:07:17.325Z,95416.13
2023-06-17T12:09:53.293Z,95416.38
2023-06-17T12:12:28.587Z,95418.96
2023-06-17T12:15:16.875Z,95417.56
2023-06-17T12:17:47.765Z,95416.64
2023-06-17T12:20:17.794Z,95418.31
2023-06-17T12:22:47.954Z,95419.70
2023-06-17T12:25:16.314Z,95423.81
2023-06-17T12:27:44.689Z,95420.22
2023-06-17T12:30:13.665Z,95419.48
2023-06-17T12:32:42.202Z,95421.57
2023-06-17T12:35:13.740Z,95419.05
2023-06-17T12:37:42.973Z,95419.02
2023-06-17T12:40:12.726Z,95418.52
2023-06-17T12:42:41.091Z,95422.27
2023-06-17T12:45:09.553Z,95421.95
2023-06-17T12:47:38.127Z,95421.96
2023-06-17T12:50:07.735Z,95426.17
2023-06-17T12:52:35.888Z,95428.81
2023-06-17T12:55:06.178Z,95433.52
2023-06-17T12:57:34.840Z,95429.70
2023-06-17T13:00:05.239Z,95430.36
2023-06-17T13:02:37.048Z,95435.32
2023-06-17T13:05:07.244Z,95436.06
2023-06-17T13:07:35.856Z,95440.59
2023-06-17T13:10:05.244Z,95436.65
2023-06-17T13:12:33.728Z,95441.97
2023-06-17T13:15:04.096Z,95441.06
2023-06-17T13:17:32.833Z,95443.09
2023-06-17T13:20:02.738Z,95446.51
2023-06-17T13:22:34.518Z,95452.41
2023-06-17T13:25:04.262Z,95463.98
2023-06-17T13:27:33.262Z,95468.06
2023-06-17T13:30:02.980Z,95468.39
2023-06-17T13:32:31.201Z,95479.12
2023-06-17T13:35:01.240Z,95489.54
2023-06-17T13:37:31.616Z,95495.23
2023-06-17T13:39:59.960Z,95498.03
2023-06-17T13:42:28.568Z,95496.65
2023-06-17T13:44:57.932Z,95496.55
2023-06-17T13:47:26.817Z,95498.73
2023-06-17T13:49:55.770Z,95501.99
2023-06-17T13:52:24.702Z,95505.54
2023-06-17T13:54:53.700Z,95504.73
2023-06-17T13:57:24.575Z,95499.21
2023-06-17T13:59:52.790Z,95492.16
2023-06-17T14:02:21.602Z,95490.30
2023-06-17T14:04:51.726Z,95489.09
2023-06-17T14:07:20.663Z,95488.35
2023-06-17T14:09:50.697Z,95483.58
2023-06-17T14:12:18.884Z,95479.64
2023-06-17T14:14:48.584Z,95478.89
2023-06-17T14:17:17.333Z,95484.05
2023-06-17T14:19:45.548Z,95493.50
2023-06-17T14:22:13.780Z,95503.77
2023-06-17T14:24:43.855Z,95507.86
2023-06-17T14:27:47.991Z,95507.75
2023-06-17T14:30:16.746Z,95506.86
2023-06-17T14:32:47.358Z,95512.63
2023-06-17T14:35:19.934Z,95509.63
2023-06-17T14:37:52.659Z,95509.54
2023-06-17T14:40:23.910Z,95508.36
2023-06-17T14:42:56.068Z,95510.14
2023-06-17T14:45:28.234Z,95513.05
2023-06-17T14:47:58.322Z,95517.34
2023-06-17T14:50:30.123Z,95518.66
2023-06-17T14:53:01.578Z,95520.17
2023-06-17T14:55:32.618Z,95518.54
2023-06-17T14:58:05.132Z,95521.98
2023-06-17T15:00:36.626Z,95520.45
2023-06-17T15:03:11.362Z,95521.09
2023-06-17T15:05:41.623Z,95520.43
2023-06-17T15:08:13.914Z,95521.33
2023-06-17T15:10:46.280Z,95521.33
2023-06-17T15:13:16.748Z,95525.96
2023-06-17T15:15:48.885Z,95525.27
2023-06-17T15:18:19.585Z,95521.23
2023-06-17T15:20:50.613Z,95518.77
2023-06-17T15:23:22.674Z,95517.70
2023-06-17T15:25:53.603Z,95514.77
2023-06-17T15:28:25.672Z,95516.95
2023-06-17T15:30:56.624Z,95515.16
2023-06-17T15:33:27.696Z,95522.94
2023-06-17T15:44:08.958Z,95535.75
2023-06-17T15:46:38.097Z,95533.61
2023-06-17T15:49:07.571Z,95536.91
2023-06-17T15:51:36.510Z,95540.15
2023-06-17T15:54:06.188Z,95539.41
2023-06-17T15:56:37.519Z,95537.48
2023-06-17T15:59:05.965Z,95537.33
2023-06-17T16:01:34.238Z,95538.04
2023-06-17T16:04:19.944Z,95534.96
2023-06-17T16:06:54.132Z,95536.33
2023-06-17T16:09:22.321Z,95540.35
2023-06-17T16:11:50.441Z,95547.29
2023-06-17T16:14:18.355Z,95551.68
2023-06-17T16:16:46.522Z,95557.13
2023-06-17T16:19:14.506Z,95554.67
2023-06-17T16:21:42.748Z,95555.14
2023-06-17T16:24:12.009Z,95555.80
2023-06-17T16:26:40.097Z,95559.30
2023-06-17T16:29:09.816Z,95567.88
2023-06-17T16:31:37.878Z,95575.98
2023-06-17T16:34:06.900Z,95577.34
2023-06-17T16:36:34.971Z,95583.32
2023-06-17T16:39:03.011Z,95584.54
2023-06-17T16:41:31.330Z,95583.05
2023-06-17T16:43:59.312Z,95583.49
2023-06-17T16:46:27.296Z,95589.58
2023-06-17T16:48:55.824Z,95594.36
2023-06-17T16:51:24.052Z,95595.74
2023-06-17T16:53:52.159Z,95598.89
2023-06-17T16:56:20.110Z,95601.39
2023-06-17T16:58:48.236Z,95604.29
2023-06-17T17:01:16.397Z,95608.92
2023-06-17T17:03:44.543Z,95606.83
2023-06-17T17:06:12.595Z,95610.20
2023-06-17T17:08:40.510Z,95610.10
2023-06-17T17:11:08.532Z,95615.92
2023-06-17T17:13:47.999Z,95614.95
2023-06-17T17:16:18.381Z,95617.90
2023-06-17T17:18:46.534Z,95619.15
2023-06-17T17:21:14.919Z,95619.16
2023-06-17T17:23:44.092Z,95620.89
2023-06-17T17:26:13.804Z,95621.02
2023-06-17T17:28:42.969Z,95623.92
2023-06-17T17:31:11.301Z,95624.86
2023-06-17T17:33:39.795Z,95621.92
2023-06-17T17:36:07.892Z,95620.23
2023-06-17T17:38:35.955Z,95619.20
2023-06-17T17:41:03.939Z,95615.12
2023-06-17T17:43:32.016Z,95616.23
2023-06-17T17:46:02.387Z,95618.55
2023-06-17T17:48:30.572Z,95618.94
2023-06-17T17:50:58.506Z,95619.21
2023-06-17T17:53:26.625Z,95619.61
2023-06-17T17:55:54.866Z,95618.23
2023-06-17T17:58:22.893Z,95618.10
2023-06-17T18:00:50.917Z,95622.36
2023-06-17T18:03:18.966Z,95626.14
2023-06-17T18:05:47.046Z,95632.40
2023-06-17T18:08:15.033Z,95632.52
2023-06-17T18:10:42.957Z,95632.28
2023-06-17T18:13:10.905Z,95637.38
2023-06-17T18:15:39.030Z,95640.39
2023-06-17T18:18:07.230Z,95640.55
2023-06-17T18:20:35.323Z,95643.19
2023-06-17T18:23:03.385Z,95645.47
2023-06-17T18:25:31.418Z,95647.48
2023-06-17T18:27:59.588Z,95653.01
2023-06-17T18:30:29.440Z,95655.13
2023-06-17T18:32:57.549Z,95660.89
2023-06-17T18:35:25.588Z,95661.31
2023-06-17T18:37:53.709Z,95663.66
2023-06-17T18:40:21.842Z,95664.65
2023-06-17T18:42:50.072Z,95667.59
2023-06-17T18:45:18.086Z,95666.94
2023-06-17T18:47:46.598Z,95669.93
2023-06-17T18:50:14.702Z,95673.67
2023-06-17T18:52:43.987Z,95669.30
2023-06-17T18:55:12.664Z,95668.77
2023-06-17T18:57:40.860Z,95672.17
2023-06-17T19:00:09.179Z,95673.57
2023-06-17T19:02:37.221Z,95678.23
2023-06-17T19:05:07.002Z,95679.67
2023-06-17T19:07:38.576Z,95680.30
2023-06-17T19:10:07.190Z,95683.90
2023-06-17T19:12:35.400Z,95682.99
2023-06-17T19:15:04.009Z,95685.92
2023-06-17T19:17:32.734Z,95683.86
2023-06-17T19:20:00.672Z,95683.55
2023-06-17T19:22:28.829Z,95687.27
2023-06-17T19:24:58.764Z,95691.74
2023-06-17T19:27:26.911Z,95691.38
2023-06-17T19:30:03.807Z,95691.39
2023-06-17T19:32:32.217Z,95694.57
2023-06-17T19:35:01.698Z,95696.09
2023-06-17T19:37:30.670Z,95695.84
2023-06-17T19:39:58.788Z,95696.52
2023-06-17T19:42:26.883Z,95695.14
2023-06-17T19:44:58.140Z,95694.34
2023-06-17T19:47:30.353Z,95693.96
2023-06-17T19:49:59.160Z,95699.23
2023-06-17T19:52:27.271Z,95698.83
2023-06-17T19:54:55.372Z,95698.47
2023-06-17T19:57:23.480Z,95700.42
2023-06-17T19:59:52.260Z,95698.41
2023-06-17T20:02:20.806Z,95697.98
2023-06-17T20:04:49.020Z,95698.28
2023-06-17T20:07:19.009Z,95695.95
2023-06-17T20:09:47.217Z,95699.22
2023-06-17T20:12:15.754Z,95702.41
2023-06-17T20:14:43.911Z,95702.52
2023-06-17T20:17:12.099Z,95702.51
2023-06-17T20:19:40.512Z,95708.09
2023-06-17T20:22:08.436Z,95702.63
2023-06-17T20:24:36.489Z,95706.00
2023-06-17T20:27:05.099Z,95705.52
2023-06-17T20:29:35.384Z,95701.27
2023-06-17T20:32:03.523Z,95702.01
2023-06-17T20:34:31.505Z,95701.17
2023-06-17T20:36:59.577Z,95701.69
2023-06-17T20:39:27.499Z,95705.92
2023-06-17T20:41:55.532Z,95705.80
2023-06-17T20:44:23.538Z,95704.91
2023-06-17T20:46:53.642Z,95705.92
2023-06-17T20:49:21.872Z,95701.05
2023-06-17T20:51:50.053Z,95702.92
2023-06-17T20:54:19.572Z,95703.65
2023-06-17T20:56:47.961Z,95706.91
2023-06-17T20:59:16.927Z,95705.73
2023-06-17T21:01:44.944Z,95704.58
2023-06-17T21:04:13.591Z,95702.48
2023-06-17T21:06:41.724Z,95705.39
2023-06-17T21:09:09.895Z,95705.49
2023-06-17T21:11:37.963Z,95708.92
2023-06-17T21:14:06.072Z,95705.98
2023-06-17T21:16:34.173Z,95707.66
2023-06-17T21:19:03.049Z,95710.22
2023-06-17T21:21:31.077Z,95708.58
2023-06-17T21:23:59.049Z,95708.91
2023-06-17T21:26:28.140Z,95706.63
2023-06-17T21:28:56.499Z,95708.59
2023-06-17T21:31:24.551Z,95710.35
2023-06-17T21:33:54.379Z,95710.80
2023-06-17T21:36:22.748Z,95711.64
2023-06-17T21:38:50.678Z,95710.77
2023-06-17T21:41:18.699Z,95709.86
2023-06-17T21:43:46.706Z,95704.76
2023-06-17T21:46:14.743Z,95701.56
2023-06-17T21:48:43.392Z,95698.82
2023-06-17T21:51:11.389Z,95695.42
2023-06-17T21:53:39.437Z,95697.03
2023-06-17T21:56:07.528Z,95699.79
2023-06-17T21:58:35.573Z,95705.29
2023-06-17T22:01:03.653Z,95707.73
2023-06-17T22:03:31.935Z,95709.98
2023-06-17T22:06:01.165Z,95710.96
2023-06-17T22:08:42.394Z,95713.33
2023-06-17T22:11:12.793Z,95714.55
2023-06-17T22:13:41.296Z,95714.41
2023-06-17T22:16:09.504Z,95718.36
2023-06-17T22:18:37.658Z,95719.21
2023-06-17T22:21:05.920Z,95724.73
2023-06-17T22:23:33.956Z,95726.45
2023-06-17T22:26:01.985Z,95727.84
2023-06-17T22:28:30.542Z,95727.40
2023-06-17T22:30:58.726Z,95725.31
2023-06-17T22:33:26.882Z,95724.96
2023-06-17T22:35:55.105Z,95727.02
2023-06-17T22:38:23.395Z,95727.88
2023-06-17T22:40:51.637Z,95733.34
2023-06-17T22:43:20.829Z,95737.08
2023-06-17T22:45:50.023Z,95738.98
2023-06-17T22:48:18.277Z,95737.61
2023-06-17T22:50:47.062Z,95737.91
2023-06-17T22:53:15.258Z,95737.55
2023-06-17T22:55:43.338Z,95733.48
2023-06-17T22:58:13.637Z,95729.12
2023-06-17T23:00:41.898Z,95723.44
2023-06-17T23:03:10.090Z,95725.02
2023-06-17T23:05:39.041Z,95721.33
2023-06-17T23:08:07.050Z,95725.44
2023-06-17T23:10:36.670Z,95730.88
2023-06-17T23:13:04.897Z,95734.86
2023-06-17T23:15:33.709Z,95734.76
2023-06-17T23:18:01.862Z,95737.18
2023-06-17T23:20:30.029Z,95740.52
2023-06-17T23:22:58.234Z,95742.23
2023-06-17T23:25:27.574Z,95743.77
2023-06-17T23:27:55.853Z,95747.80
2023-06-17T23:30:25.321Z,95746.19
2023-06-17T23:32:53.521Z,95746.38
2023-06-17T23:35:22.146Z,95744.34
2023-06-17T23:37:50.150Z,95741.08
2023-06-17T23:40:18.119Z,95746.08
2023-06-17T23:42:46.083Z,95749.00
2023-06-17T23:45:15.450Z,95748.10
2023-06-17T23:47:43.677Z,95744.04
2023-06-17T23:50:11.973Z,95746.07
2023-06-17T23:52:57.226Z,95746.84
2023-06-17T23:55:42.949Z,95745.70
2023-06-17T23:58:30.333Z,95746.89
